Meike-b — V2QR4 — position and weather

sailwx.info

Track history (hours):
 
Tides and Currents Weather Stations Pressure Air Temp Water Temp Dewpoint Dewpoint Depression Visibility Wind Speed Wind Dir Waves Ship Positions

Meike-b

Last reported at 2018-Feb-18 19:42 UTC. Time now 2018-Feb-20 11:44 UTC.
Position N 46°35' E 031°52'.

Length 96 m; draft 3.6 m.

Type: Cargo ship. MMSI: 304958000.

Date/timePositionNaut miles runAvg speedWind from/ knotsBaromVisibWave heightAir tempDewpointWater temp
2018-Feb-18 19:42N 46°35' E 031°52'4 8.4
2018-Feb-18 19:14N 46°34' E 031°57'2 8.9
2018-Feb-18 19:00N 46°33' E 032°00'  
2018-Feb-14 01:43N 46°32' E 032°07'3 9.6
2018-Feb-14 01:25N 46°32' E 032°03'4 9.9
2018-Feb-14 01:00N 46°34' E 031°57'39 4.7
2018-Feb-13 16:46N 46°34' E 031°01'2 6.5
2018-Feb-13 16:30N 46°33' E 030°59'3 6.4
2018-Feb-13 16:00N 46°30' E 030°57'15 7.0
2018-Feb-13 13:54N 46°16' E 030°51'410.4
2018-Feb-13 13:30N 46°17' E 030°45'4 8.3
2018-Feb-13 12:59N 46°19' E 030°40'2 0.3
2018-Feb-13 07:55N 46°20' E 030°38'0 0.0
2018-Feb-13 06:43N 46°20' E 030°38'0 0.0
2018-Feb-13 04:55N 46°20' E 030°38'0 0.0
2018-Feb-13 03:55N 46°20' E 030°38'0 0.0
2018-Feb-13 02:52N 46°20' E 030°38'0 0.0
2018-Feb-13 01:58N 46°20' E 030°38'0 0.0
2018-Feb-13 00:55N 46°20' E 030°38'0 0.0
2018-Feb-12 23:40N 46°20' E 030°38'0 0.0
2018-Feb-12 22:55N 46°20' E 030°38'0 0.0
2018-Feb-12 21:58N 46°20' E 030°38'0 0.0
2018-Feb-12 18:58N 46°20' E 030°38'0 0.0
2018-Feb-12 17:58N 46°20' E 030°38'0 0.0
2018-Feb-12 16:40N 46°20' E 030°38'0 0.0
2018-Feb-12 14:55N 46°20' E 030°38'0 0.0
2018-Feb-12 13:58N 46°20' E 030°38'0 0.0
2018-Feb-12 11:58N 46°20' E 030°38'0 0.0
2018-Feb-12 10:46N 46°20' E 030°38'0 0.0
2018-Feb-12 09:58N 46°20' E 030°38'0 0.0
2018-Feb-12 06:49N 46°20' E 030°38'0 0.0
2018-Feb-12 05:55N 46°20' E 030°38'0 0.0
2018-Feb-12 04:58N 46°20' E 030°38'0 0.0
2018-Feb-12 02:58N 46°20' E 030°38'0 0.0
2018-Feb-12 01:52N 46°20' E 030°38'0 0.0
2018-Feb-12 00:52N 46°20' E 030°38'0 0.0
2018-Feb-11 21:54N 46°20' E 030°38'0 0.0
2018-Feb-11 20:57N 46°20' E 030°38'0 0.0
2018-Feb-11 19:54N 46°20' E 030°38'0 0.0
2018-Feb-11 18:54N 46°20' E 030°38'0 0.0
2018-Feb-11 15:54N 46°20' E 030°38'0 0.0
2018-Feb-11 13:45N 46°20' E 030°38'0 0.0
2018-Feb-11 11:54N 46°20' E 030°38'0 0.0
2018-Feb-11 09:46N 46°20' E 030°38'0 0.0
2018-Feb-11 08:49N 46°20' E 030°38'0 0.0
2018-Feb-11 06:40N 46°20' E 030°38'0 0.0
2018-Feb-11 05:54N 46°20' E 030°38'0 0.0
2018-Feb-11 04:54N 46°20' E 030°38'0 0.0
2018-Feb-11 03:54N 46°20' E 030°38'0 0.0
2018-Feb-11 02:51N 46°20' E 030°38'0 0.0
2018-Feb-11 01:51N 46°20' E 030°38'0 0.0
2018-Feb-11 00:57N 46°20' E 030°38'0 0.0
2018-Feb-10 23:57N 46°20' E 030°38'0 0.0
2018-Feb-10 22:51N 46°20' E 030°38'0 0.0
2018-Feb-10 20:54N 46°20' E 030°38'0 0.0
2018-Feb-10 19:51N 46°20' E 030°38'0 0.0
2018-Feb-10 17:45N 46°20' E 030°38'0 0.0
2018-Feb-10 16:42N 46°20' E 030°38'0 0.0
2018-Feb-10 15:51N 46°20' E 030°38'0 0.0
2018-Feb-10 12:51N 46°20' E 030°38'0 0.0
2018-Feb-10 11:54N 46°20' E 030°38'0 0.0
2018-Feb-10 10:57N 46°20' E 030°38'0 0.0
2018-Feb-10 08:54N 46°20' E 030°38'0 0.0
2018-Feb-10 05:27N 46°20' E 030°38'0 0.0
2018-Feb-10 04:27N 46°20' E 030°38'0 0.0
2018-Feb-10 03:24N 46°20' E 030°38'0 0.0
2018-Feb-10 02:27N 46°20' E 030°38'0 0.0
2018-Feb-10 01:18N 46°20' E 030°38'0 0.0
2018-Feb-09 23:24N 46°20' E 030°38'0 0.0
2018-Feb-09 22:12N 46°20' E 030°38'  
Track history (hours):
 
Tides and Currents Weather Stations Pressure Air Temp Water Temp Dewpoint Dewpoint Depression Visibility Wind Speed Wind Dir Waves Ship Positions

Meike-b

Last reported at 2018-Feb-18 19:42 UTC. Time now 2018-Feb-20 11:44 UTC.
Position N 46°35' E 031°52'.

Length 96 m; draft 3.6 m.

Type: Cargo ship. MMSI: 304958000.

Date/timePositionNaut miles runAvg speedWind from/ knotsBaromVisibWave heightAir tempDewpointWater temp
2018-Feb-18 19:42N 46°35' E 031°52'4 8.4
2018-Feb-18 19:14N 46°34' E 031°57'2 8.9
2018-Feb-18 19:00N 46°33' E 032°00'  
2018-Feb-14 01:43N 46°32' E 032°07'3 9.6
2018-Feb-14 01:25N 46°32' E 032°03'4 9.9
2018-Feb-14 01:00N 46°34' E 031°57'39 4.7
2018-Feb-13 16:46N 46°34' E 031°01'2 6.5
2018-Feb-13 16:30N 46°33' E 030°59'3 6.4
2018-Feb-13 16:00N 46°30' E 030°57'15 7.0
2018-Feb-13 13:54N 46°16' E 030°51'410.4
2018-Feb-13 13:30N 46°17' E 030°45'4 8.3
2018-Feb-13 12:59N 46°19' E 030°40'2 0.3
2018-Feb-13 07:55N 46°20' E 030°38'0 0.0
2018-Feb-13 06:43N 46°20' E 030°38'0 0.0
2018-Feb-13 04:55N 46°20' E 030°38'0 0.0
2018-Feb-13 03:55N 46°20' E 030°38'0 0.0
2018-Feb-13 02:52N 46°20' E 030°38'0 0.0
2018-Feb-13 01:58N 46°20' E 030°38'0 0.0
2018-Feb-13 00:55N 46°20' E 030°38'0 0.0
2018-Feb-12 23:40N 46°20' E 030°38'0 0.0
2018-Feb-12 22:55N 46°20' E 030°38'0 0.0
2018-Feb-12 21:58N 46°20' E 030°38'0 0.0
2018-Feb-12 18:58N 46°20' E 030°38'0 0.0
2018-Feb-12 17:58N 46°20' E 030°38'0 0.0
2018-Feb-12 16:40N 46°20' E 030°38'0 0.0
2018-Feb-12 14:55N 46°20' E 030°38'0 0.0
2018-Feb-12 13:58N 46°20' E 030°38'0 0.0
2018-Feb-12 11:58N 46°20' E 030°38'0 0.0
2018-Feb-12 10:46N 46°20' E 030°38'0 0.0
2018-Feb-12 09:58N 46°20' E 030°38'0 0.0
2018-Feb-12 06:49N 46°20' E 030°38'0 0.0
2018-Feb-12 05:55N 46°20' E 030°38'0 0.0
2018-Feb-12 04:58N 46°20' E 030°38'0 0.0
2018-Feb-12 02:58N 46°20' E 030°38'0 0.0
2018-Feb-12 01:52N 46°20' E 030°38'0 0.0
2018-Feb-12 00:52N 46°20' E 030°38'0 0.0
2018-Feb-11 21:54N 46°20' E 030°38'0 0.0
2018-Feb-11 20:57N 46°20' E 030°38'0 0.0
2018-Feb-11 19:54N 46°20' E 030°38'0 0.0
2018-Feb-11 18:54N 46°20' E 030°38'0 0.0
2018-Feb-11 15:54N 46°20' E 030°38'0 0.0
2018-Feb-11 13:45N 46°20' E 030°38'0 0.0
2018-Feb-11 11:54N 46°20' E 030°38'0 0.0
2018-Feb-11 09:46N 46°20' E 030°38'0 0.0
2018-Feb-11 08:49N 46°20' E 030°38'0 0.0
2018-Feb-11 06:40N 46°20' E 030°38'0 0.0
2018-Feb-11 05:54N 46°20' E 030°38'0 0.0
2018-Feb-11 04:54N 46°20' E 030°38'0 0.0
2018-Feb-11 03:54N 46°20' E 030°38'0 0.0
2018-Feb-11 02:51N 46°20' E 030°38'0 0.0
2018-Feb-11 01:51N 46°20' E 030°38'0 0.0
2018-Feb-11 00:57N 46°20' E 030°38'0 0.0
2018-Feb-10 23:57N 46°20' E 030°38'0 0.0
2018-Feb-10 22:51N 46°20' E 030°38'0 0.0
2018-Feb-10 20:54N 46°20' E 030°38'0 0.0
2018-Feb-10 19:51N 46°20' E 030°38'0 0.0
2018-Feb-10 17:45N 46°20' E 030°38'0 0.0
2018-Feb-10 16:42N 46°20' E 030°38'0 0.0
2018-Feb-10 15:51N 46°20' E 030°38'0 0.0
2018-Feb-10 12:51N 46°20' E 030°38'0 0.0
2018-Feb-10 11:54N 46°20' E 030°38'0 0.0
2018-Feb-10 10:57N 46°20' E 030°38'0 0.0
2018-Feb-10 08:54N 46°20' E 030°38'0 0.0
2018-Feb-10 05:27N 46°20' E 030°38'0 0.0
2018-Feb-10 04:27N 46°20' E 030°38'0 0.0
2018-Feb-10 03:24N 46°20' E 030°38'0 0.0
2018-Feb-10 02:27N 46°20' E 030°38'0 0.0
2018-Feb-10 01:18N 46°20' E 030°38'0 0.0
2018-Feb-09 23:24N 46°20' E 030°38'0 0.0
2018-Feb-09 22:12N 46°20' E 030°38'  

Dump ship's entire track history